Time;durP1;ratioP1;P1;durP2;ratioP2;P2;SDS_P1;SDS_P2;PMS_P1;PMS_P2;Temp;Humidity;BMP_temperature;BMP_pressure;BME280_temperature;BME280_humidity;BME280_pressure;Samples;Min_cycle;Max_cycle;Signal;HPM_P1;HPM_P2
2022/07/23 00:00:00;;;;;;;6.82;4.38;;;;;;;;;;4993251;28;20128;-66
2022/07/23 00:02:26;;;;;;;7.55;4.13;;;;;;;;;;4993844;28;20093;-66
2022/07/23 00:04:52;;;;;;;6.13;3.88;;;;;;;;;;4993666;28;20105;-66
2022/07/23 00:07:18;;;;;;;7.43;4.18;;;;;;;;;;4993330;28;20453;-66
2022/07/23 00:09:45;;;;;;;6.35;4.38;;;;;;;;;;4993341;28;20039;-66
2022/07/23 00:12:11;;;;;;;4.60;3.97;;;;;;;;;;4993466;28;20042;-66
2022/07/23 00:14:37;;;;;;;10.88;4.45;;;;;;;;;;4992958;28;20077;-66
2022/07/23 00:17:03;;;;;;;9.88;4.72;;;;;;;;;;4993590;28;20050;-66
2022/07/23 00:19:29;;;;;;;6.97;3.72;;;;;;;;;;4993530;28;20070;-66
2022/07/23 00:21:55;;;;;;;5.82;4.47;;;;;;;;;;4993071;28;20527;-66
2022/07/23 00:24:21;;;;;;;6.25;4.05;;;;;;;;;;4993471;28;20039;-66
2022/07/23 00:26:47;;;;;;;7.78;4.60;;;;;;;;;;4993106;28;20070;-66
2022/07/23 00:29:13;;;;;;;6.65;4.50;;;;;;;;;;4993012;28;20074;-66
2022/07/23 00:31:39;;;;;;;5.50;4.47;;;;;;;;;;4993439;28;20125;-66
2022/07/23 00:34:05;;;;;;;5.43;4.13;;;;;;;;;;4993371;28;20117;-66
2022/07/23 00:36:31;;;;;;;7.93;4.68;;;;;;;;;;4992580;28;20540;-66
2022/07/23 00:38:57;;;;;;;6.45;4.82;;;;;;;;;;4993119;28;20133;-66
2022/07/23 00:41:23;;;;;;;6.40;4.60;;;;;;;;;;4993005;28;20078;-66
2022/07/23 00:43:49;;;;;;;7.53;4.93;;;;;;;;;;4992406;28;20038;-66
2022/07/23 00:46:22;;;;;;;9.82;4.72;;;;;;;;;;4992623;28;20489;-66
2022/07/23 00:48:48;;;;;;;6.82;4.72;;;;;;;;;;4992517;28;20046;-66
2022/07/23 00:51:17;;;;;;;6.75;5.03;;;;;;;;;;4992287;28;20046;-66
2022/07/23 00:53:44;;;;;;;6.72;4.63;;;;;;;;;;4992776;28;20042;-66
2022/07/23 00:56:11;;;;;;;10.88;4.75;;;;;;;;;;4992534;28;20042;-66
2022/07/23 00:58:37;;;;;;;5.07;4.50;;;;;;;;;;4992415;28;20034;-66
2022/07/23 01:01:03;;;;;;;9.20;4.80;;;;;;;;;;4992525;28;20089;-66
2022/07/23 01:03:29;;;;;;;7.05;4.28;;;;;;;;;;4992924;28;20454;-66
2022/07/23 01:05:56;;;;;;;7.55;4.85;;;;;;;;;;4991943;28;20042;-66
2022/07/23 01:08:22;;;;;;;8.73;5.15;;;;;;;;;;4992472;28;20092;-66
2022/07/23 01:10:49;;;;;;;9.55;5.07;;;;;;;;;;4992523;28;20089;-66
2022/07/23 01:13:15;;;;;;;6.43;4.18;;;;;;;;;;4992093;28;20404;-66
2022/07/23 01:15:41;;;;;;;9.15;4.80;;;;;;;;;;4992598;28;20124;-66
2022/07/23 01:18:07;;;;;;;10.20;4.82;;;;;;;;;;4992439;28;20073;-66
2022/07/23 01:20:36;;;;;;;6.65;4.78;;;;;;;;;;4991778;28;20046;-66
2022/07/23 01:23:02;;;;;;;7.90;5.03;;;;;;;;;;4991896;28;20125;-66
2022/07/23 01:25:28;;;;;;;7.70;5.22;;;;;;;;;;4992384;28;20042;-66
2022/07/23 01:27:54;;;;;;;9.15;4.60;;;;;;;;;;4991966;28;20145;-66
2022/07/23 01:30:21;;;;;;;7.40;4.65;;;;;;;;;;4992322;28;20042;-66
2022/07/23 01:32:47;;;;;;;6.82;4.88;;;;;;;;;;4991932;28;20133;-66
2022/07/23 01:35:13;;;;;;;7.60;4.93;;;;;;;;;;4991989;28;20173;-66
2022/07/23 01:37:39;;;;;;;5.88;4.35;;;;;;;;;;4991933;28;20054;-66
2022/07/23 01:40:05;;;;;;;11.32;5.35;;;;;;;;;;4992157;28;20373;-66
2022/07/23 01:42:31;;;;;;;11.05;5.35;;;;;;;;;;4991810;28;20046;-66
2022/07/23 01:44:58;;;;;;;8.98;5.03;;;;;;;;;;4992265;28;20046;-66
2022/07/23 01:47:24;;;;;;;7.63;4.60;;;;;;;;;;4991655;28;20186;-66
2022/07/23 01:49:50;;;;;;;5.90;5.03;;;;;;;;;;4991777;28;20065;-66
2022/07/23 01:52:16;;;;;;;5.57;4.28;;;;;;;;;;4991620;28;20125;-66
2022/07/23 01:54:42;;;;;;;5.28;4.32;;;;;;;;;;4992199;28;20381;-66
2022/07/23 01:57:08;;;;;;;8.93;4.65;;;;;;;;;;4991390;28;20392;-66
2022/07/23 01:59:35;;;;;;;5.35;4.85;;;;;;;;;;4991814;28;20077;-66
2022/07/23 02:02:03;;;;;;;5.85;5.10;;;;;;;;;;4992099;28;20042;-66
2022/07/23 02:04:29;;;;;;;5.85;4.45;;;;;;;;;;4991586;28;20571;-66
2022/07/23 02:06:55;;;;;;;7.00;4.85;;;;;;;;;;4974410;28;20389;-66
2022/07/23 02:09:22;;;;;;;8.38;4.68;;;;;;;;;;4992062;28;20030;-66
2022/07/23 02:11:48;;;;;;;7.78;4.43;;;;;;;;;;4991489;28;20489;-66
2022/07/23 02:14:14;;;;;;;11.38;4.60;;;;;;;;;;4991904;28;20100;-66
2022/07/23 02:16:40;;;;;;;6.50;4.55;;;;;;;;;;4974333;28;20093;-66
2022/07/23 02:19:06;;;;;;;7.13;4.28;;;;;;;;;;4991498;28;20503;-66
2022/07/23 02:21:32;;;;;;;8.80;4.80;;;;;;;;;;4991829;28;20050;-66
2022/07/23 02:23:58;;;;;;;7.38;4.68;;;;;;;;;;4991795;28;20089;-66
2022/07/23 02:26:24;;;;;;;8.82;4.60;;;;;;;;;;4991320;28;20487;-66
2022/07/23 02:28:52;;;;;;;5.70;4.78;;;;;;;;;;4991781;28;20038;-66
2022/07/23 02:31:18;;;;;;;6.97;4.22;;;;;;;;;;4991951;28;20558;-66
2022/07/23 02:33:44;;;;;;;6.10;4.32;;;;;;;;;;4991444;28;20038;-66
2022/07/23 02:36:10;;;;;;;8.40;4.88;;;;;;;;;;4995354;28;20046;-66
2022/07/23 02:38:36;;;;;;;6.80;4.57;;;;;;;;;;4995178;28;20052;-66
2022/07/23 02:41:02;;;;;;;8.25;4.82;;;;;;;;;;4995036;28;20374;-66
2022/07/23 02:43:29;;;;;;;5.07;4.50;;;;;;;;;;4995053;28;20125;-66
2022/07/23 02:45:55;;;;;;;5.65;4.68;;;;;;;;;;4994919;28;20055;-66
2022/07/23 02:48:21;;;;;;;7.22;4.47;;;;;;;;;;4995268;28;20042;-66
2022/07/23 02:50:47;;;;;;;5.47;4.55;;;;;;;;;;4994856;28;20101;-66
2022/07/23 02:53:13;;;;;;;8.32;4.43;;;;;;;;;;4994992;28;20050;-66
2022/07/23 02:55:39;;;;;;;8.77;4.55;;;;;;;;;;4994911;28;20125;-66
2022/07/23 02:58:05;;;;;;;9.35;4.63;;;;;;;;;;4994474;28;20046;-66
2022/07/23 03:00:31;;;;;;;8.75;4.72;;;;;;;;;;4994864;28;20038;-66
2022/07/23 03:02:57;;;;;;;7.95;4.97;;;;;;;;;;4977461;28;20036;-66
2022/07/23 03:05:23;;;;;;;7.35;4.50;;;;;;;;;;4994501;28;20081;-66
2022/07/23 03:07:49;;;;;;;6.38;4.68;;;;;;;;;;4994789;28;20038;-66
2022/07/23 03:10:15;;;;;;;6.15;4.47;;;;;;;;;;4994553;28;20125;-66
2022/07/23 03:12:41;;;;;;;7.65;4.75;;;;;;;;;;4994095;28;20081;-66
2022/07/23 03:15:08;;;;;;;5.00;4.50;;;;;;;;;;4994781;28;20092;-66
2022/07/23 03:17:33;;;;;;;6.40;4.65;;;;;;;;;;4994640;28;20690;-66
2022/07/23 03:20:00;;;;;;;5.63;4.60;;;;;;;;;;4994417;28;20041;-66
2022/07/23 03:22:26;;;;;;;7.72;4.97;;;;;;;;;;4994179;28;20050;-66
2022/07/23 03:24:55;;;;;;;5.20;4.53;;;;;;;;;;4976903;28;20129;-66
2022/07/23 03:27:21;;;;;;;7.82;5.13;;;;;;;;;;4994086;28;20049;-66
2022/07/23 03:29:47;;;;;;;7.53;4.75;;;;;;;;;;4994431;28;20455;-66
2022/07/23 03:32:13;;;;;;;7.40;4.82;;;;;;;;;;4994178;28;20038;-66
2022/07/23 03:34:39;;;;;;;7.10;5.15;;;;;;;;;;4994082;28;20125;-66
2022/07/23 03:37:05;;;;;;;7.15;4.80;;;;;;;;;;4993999;28;20401;-66
2022/07/23 03:39:31;;;;;;;9.82;4.68;;;;;;;;;;4994423;28;20531;-66
2022/07/23 03:41:57;;;;;;;9.75;4.95;;;;;;;;;;4993638;28;20121;-66
2022/07/23 03:44:23;;;;;;;5.57;4.57;;;;;;;;;;4994292;28;20042;-66
2022/07/23 03:46:49;;;;;;;6.15;4.22;;;;;;;;;;4993222;28;20517;-66
2022/07/23 03:49:15;;;;;;;7.35;4.10;;;;;;;;;;4993582;28;20078;-66
2022/07/23 03:51:41;;;;;;;5.45;4.75;;;;;;;;;;4994153;28;20465;-66
2022/07/23 03:54:07;;;;;;;6.15;4.28;;;;;;;;;;4994060;28;20046;-66
2022/07/23 03:56:33;;;;;;;6.30;4.47;;;;;;;;;;4993648;28;20069;-66
2022/07/23 03:58:59;;;;;;;7.53;4.60;;;;;;;;;;4993980;28;20042;-66
2022/07/23 04:01:25;;;;;;;6.28;4.05;;;;;;;;;;4993834;28;20487;-66
2022/07/23 04:03:51;;;;;;;6.78;4.20;;;;;;;;;;4993233;28;20121;-66
2022/07/23 04:06:18;;;;;;;5.45;4.22;;;;;;;;;;4993748;28;20042;-66
2022/07/23 04:08:44;;;;;;;6.82;4.32;;;;;;;;;;4993793;28;20038;-66
2022/07/23 04:11:10;;;;;;;5.22;4.07;;;;;;;;;;4993267;28;20124;-66
2022/07/23 04:13:36;;;;;;;5.57;3.85;;;;;;;;;;4993464;28;20138;-66
2022/07/23 04:16:03;;;;;;;5.82;4.10;;;;;;;;;;4993280;28;20057;-66
2022/07/23 04:18:29;;;;;;;5.15;3.50;;;;;;;;;;4993254;28;20598;-66
2022/07/23 04:20:55;;;;;;;6.88;4.88;;;;;;;;;;4993231;28;20046;-66
2022/07/23 04:23:21;;;;;;;6.47;3.90;;;;;;;;;;4993556;28;20038;-66
2022/07/23 04:25:47;;;;;;;4.32;3.92;;;;;;;;;;4992970;28;20045;-66
2022/07/23 04:28:13;;;;;;;7.55;4.40;;;;;;;;;;4993440;28;20742;-66
2022/07/23 04:30:39;;;;;;;6.13;4.15;;;;;;;;;;4993046;28;20125;-66
2022/07/23 04:33:06;;;;;;;6.45;3.67;;;;;;;;;;4992822;28;20126;-66
2022/07/23 04:35:36;;;;;;;5.22;3.83;;;;;;;;;;4993282;28;20081;-66
2022/07/23 04:38:02;;;;;;;5.75;4.15;;;;;;;;;;4993167;28;20057;-66
2022/07/23 04:40:28;;;;;;;7.47;3.58;;;;;;;;;;4992568;28;20042;-66
2022/07/23 04:42:54;;;;;;;8.07;4.18;;;;;;;;;;4993031;28;20756;-66
2022/07/23 04:45:20;;;;;;;4.90;3.70;;;;;;;;;;4992967;28;20045;-66
2022/07/23 04:47:47;;;;;;;6.47;4.72;;;;;;;;;;4992108;28;20133;-66
2022/07/23 04:50:17;;;;;;;6.57;3.90;;;;;;;;;;4992939;28;20049;-66
2022/07/23 04:52:43;;;;;;;6.20;4.20;;;;;;;;;;4992926;28;20065;-66
2022/07/23 04:55:09;;;;;;;5.38;4.05;;;;;;;;;;4992523;28;20042;-66
2022/07/23 04:57:35;;;;;;;4.75;3.90;;;;;;;;;;4992043;28;20771;-66
2022/07/23 05:00:01;;;;;;;5.32;3.88;;;;;;;;;;4992720;28;20401;-66
2022/07/23 05:02:27;;;;;;;5.28;3.65;;;;;;;;;;4974499;28;20053;-66
2022/07/23 05:04:53;;;;;;;6.47;4.00;;;;;;;;;;4992728;28;20042;-66
2022/07/23 05:07:19;;;;;;;6.15;4.20;;;;;;;;;;4992708;28;20069;-66
2022/07/23 05:09:45;;;;;;;7.85;4.20;;;;;;;;;;4991997;28;20042;-66
2022/07/23 05:12:11;;;;;;;7.10;4.32;;;;;;;;;;4992372;28;20697;-66
2022/07/23 05:14:38;;;;;;;7.97;4.85;;;;;;;;;;4992013;28;20150;-66
2022/07/23 05:17:04;;;;;;;6.68;4.35;;;;;;;;;;4992081;28;20401;-66
2022/07/23 05:19:30;;;;;;;6.38;4.60;;;;;;;;;;4992182;28;20053;-66
2022/07/23 05:21:56;;;;;;;8.18;4.90;;;;;;;;;;4992080;28;20133;-66
2022/07/23 05:24:22;;;;;;;9.43;5.68;;;;;;;;;;4992127;28;20046;-66
2022/07/23 05:26:48;;;;;;;7.65;4.68;;;;;;;;;;4992352;28;20066;-66
2022/07/23 05:29:14;;;;;;;8.60;5.05;;;;;;;;;;4992401;28;20556;-66
2022/07/23 05:31:40;;;;;;;8.65;4.60;;;;;;;;;;4991894;28;20050;-66
2022/07/23 05:34:06;;;;;;;9.77;5.05;;;;;;;;;;4991945;28;20238;-66
2022/07/23 05:36:33;;;;;;;8.13;4.75;;;;;;;;;;4974500;28;20054;-66
2022/07/23 05:38:59;;;;;;;9.65;4.63;;;;;;;;;;4991880;28;20048;-66
2022/07/23 05:41:25;;;;;;;10.05;5.47;;;;;;;;;;4991725;28;20057;-66
2022/07/23 05:43:51;;;;;;;8.40;5.22;;;;;;;;;;4992235;28;20027;-66
2022/07/23 05:46:17;;;;;;;8.13;4.47;;;;;;;;;;4991207;28;20054;-66
2022/07/23 05:48:45;;;;;;;10.73;5.50;;;;;;;;;;4991795;28;20061;-66
2022/07/23 05:51:11;;;;;;;12.02;5.50;;;;;;;;;;4992280;28;20436;-66
2022/07/23 05:53:38;;;;;;;10.45;4.75;;;;;;;;;;4991674;28;20046;-66
2022/07/23 05:56:04;;;;;;;7.28;4.47;;;;;;;;;;4991828;28;20046;-66
2022/07/23 05:58:30;;;;;;;9.70;4.95;;;;;;;;;;4992068;28;20046;-66
2022/07/23 06:00:56;;;;;;;9.88;4.88;;;;;;;;;;4991552;28;20042;-66
2022/07/23 06:03:22;;;;;;;7.15;4.63;;;;;;;;;;4991757;28;20045;-66
2022/07/23 06:05:48;;;;;;;9.10;4.63;;;;;;;;;;4991859;28;20042;-66
2022/07/23 06:08:14;;;;;;;12.32;4.82;;;;;;;;;;4974588;28;20078;-66
2022/07/23 06:10:41;;;;;;;9.82;4.63;;;;;;;;;;4994718;28;20046;-66
2022/07/23 06:13:07;;;;;;;9.18;4.18;;;;;;;;;;4995878;28;20074;-66
2022/07/23 06:15:33;;;;;;;7.13;4.43;;;;;;;;;;4995731;28;20768;-66
2022/07/23 06:17:59;;;;;;;6.57;4.28;;;;;;;;;;4995075;28;20050;-66
2022/07/23 06:20:26;;;;;;;6.32;3.50;;;;;;;;;;4995662;28;20042;-66
2022/07/23 06:22:52;;;;;;;6.78;3.88;;;;;;;;;;4995644;28;20650;-66
2022/07/23 06:25:20;;;;;;;7.53;3.03;;;;;;;;;;4977918;28;20049;-66
2022/07/23 06:27:46;;;;;;;5.35;2.88;;;;;;;;;;4995622;28;20481;-66
2022/07/23 06:30:12;;;;;;;6.03;2.33;;;;;;;;;;4995239;28;20039;-66
2022/07/23 06:32:38;;;;;;;3.33;2.33;;;;;;;;;;4994603;28;20038;-66
2022/07/23 06:35:05;;;;;;;7.30;2.90;;;;;;;;;;4995457;28;20050;-66
2022/07/23 06:37:31;;;;;;;5.10;2.30;;;;;;;;;;4995375;28;20066;-66
2022/07/23 06:39:57;;;;;;;3.95;1.85;;;;;;;;;;4977310;28;20049;-66
2022/07/23 06:42:23;;;;;;;4.40;1.80;;;;;;;;;;4995234;28;20121;-66
2022/07/23 06:44:49;;;;;;;4.65;2.28;;;;;;;;;;4995387;28;20035;-66
2022/07/23 06:47:15;;;;;;;5.93;1.70;;;;;;;;;;4994298;28;20090;-66
2022/07/23 06:49:41;;;;;;;8.02;1.50;;;;;;;;;;4995217;28;20092;-66
2022/07/23 06:52:07;;;;;;;3.92;1.70;;;;;;;;;;4994826;28;20058;-66
2022/07/23 06:54:33;;;;;;;4.85;1.77;;;;;;;;;;4994722;28;20129;-66
2022/07/23 06:56:59;;;;;;;5.80;1.50;;;;;;;;;;4995061;28;20473;-66
2022/07/23 06:59:25;;;;;;;3.60;1.58;;;;;;;;;;4994848;28;20125;-66
2022/07/23 07:01:51;;;;;;;3.05;1.20;;;;;;;;;;4994432;28;20046;-66
2022/07/23 07:04:17;;;;;;;3.83;1.20;;;;;;;;;;4994958;28;20038;-66
2022/07/23 07:06:43;;;;;;;3.28;1.15;;;;;;;;;;4994500;28;20046;-66
2022/07/23 07:09:09;;;;;;;2.30;1.02;;;;;;;;;;4994559;28;20066;-66
2022/07/23 07:11:35;;;;;;;4.90;0.95;;;;;;;;;;4994857;28;20602;-66
2022/07/23 07:14:01;;;;;;;2.47;1.30;;;;;;;;;;4994689;28;20070;-66
2022/07/23 07:16:27;;;;;;;3.85;0.98;;;;;;;;;;4994313;28;20046;-66
2022/07/23 07:18:53;;;;;;;3.05;1.20;;;;;;;;;;4994399;28;20042;-66
2022/07/23 07:21:19;;;;;;;1.42;0.95;;;;;;;;;;4993427;28;20092;-66
2022/07/23 07:23:45;;;;;;;2.97;1.30;;;;;;;;;;4993876;28;20073;-66
2022/07/23 07:26:11;;;;;;;3.22;1.20;;;;;;;;;;4994604;28;20042;-66
2022/07/23 07:28:37;;;;;;;3.20;0.90;;;;;;;;;;4994590;28;20039;-66
2022/07/23 07:31:04;;;;;;;2.10;1.02;;;;;;;;;;4994086;28;20073;-66
2022/07/23 07:33:30;;;;;;;2.35;1.02;;;;;;;;;;4994459;28;20469;-66
2022/07/23 07:35:56;;;;;;;2.33;0.98;;;;;;;;;;4994104;28;20046;-66
2022/07/23 07:38:21;;;;;;;2.15;0.93;;;;;;;;;;4993986;28;20048;-66
2022/07/23 07:40:47;;;;;;;2.08;0.88;;;;;;;;;;4994176;28;20053;-66
2022/07/23 07:43:14;;;;;;;3.92;1.10;;;;;;;;;;4994325;28;20038;-66
2022/07/23 07:45:40;;;;;;;2.63;0.93;;;;;;;;;;4993813;28;20035;-66
2022/07/23 07:48:06;;;;;;;1.63;0.65;;;;;;;;;;4976240;28;20129;-66
2022/07/23 07:50:32;;;;;;;3.65;0.80;;;;;;;;;;4994276;28;20053;-66
2022/07/23 07:52:58;;;;;;;3.00;0.90;;;;;;;;;;4976171;28;20085;-66
2022/07/23 07:55:24;;;;;;;6.40;1.05;;;;;;;;;;4994147;28;20046;-66
2022/07/23 07:57:50;;;;;;;2.55;0.75;;;;;;;;;;4994083;28;20042;-66
2022/07/23 08:00:17;;;;;;;1.05;0.73;;;;;;;;;;4993481;28;20471;-66
2022/07/23 08:02:45;;;;;;;1.30;0.70;;;;;;;;;;4993961;28;20484;-66
2022/07/23 08:05:11;;;;;;;2.63;0.98;;;;;;;;;;4993927;28;20049;-66
2022/07/23 08:07:38;;;;;;;1.10;0.80;;;;;;;;;;4993406;28;20046;-66
2022/07/23 08:10:05;;;;;;;1.15;0.63;;;;;;;;;;4993886;28;20041;-66
2022/07/23 08:12:44;;;;;;;1.42;0.70;;;;;;;;;;4993871;28;20381;-66
2022/07/23 08:15:11;;;;;;;1.60;0.50;;;;;;;;;;4993328;28;20053;-66
2022/07/23 08:17:37;;;;;;;2.13;0.57;;;;;;;;;;4993585;28;20140;-66
2022/07/23 08:20:06;;;;;;;0.57;0.40;;;;;;;;;;4993703;28;20073;-66
2022/07/23 08:23:01;;;;;;;2.08;0.70;;;;;;;;;;4992931;28;20496;-66
2022/07/23 08:25:31;;;;;;;3.45;0.65;;;;;;;;;;4966365;28;20105;-66
2022/07/23 08:27:58;;;;;;;0.40;0.40;;;;;;;;;;4993313;28;20038;-66
2022/07/23 08:30:24;;;;;;;2.38;0.70;;;;;;;;;;4993045;28;20097;-66
2022/07/23 08:33:00;;;;;;;2.47;0.52;;;;;;;;;;4993072;28;20038;-66
2022/07/23 08:35:30;;;;;;;1.33;0.50;;;;;;;;;;4993279;28;20129;-66
2022/07/23 08:37:57;;;;;;;1.92;0.57;;;;;;;;;;4992903;28;20125;-66
2022/07/23 08:40:26;;;;;;;3.25;0.50;;;;;;;;;;4993236;28;20042;-66
2022/07/23 08:42:52;;;;;;;0.88;0.60;;;;;;;;;;4993207;28;20034;-66
2022/07/23 08:45:20;;;;;;;2.58;0.60;;;;;;;;;;4975150;28;20050;-66
2022/07/23 08:47:48;;;;;;;1.33;0.60;;;;;;;;;;4992584;28;20054;-66
2022/07/23 08:50:14;;;;;;;1.80;0.52;;;;;;;;;;4993054;28;20068;-66
2022/07/23 08:52:40;;;;;;;1.40;0.50;;;;;;;;;;4992545;28;20389;-66
2022/07/23 08:55:07;;;;;;;1.75;0.90;;;;;;;;;;4993078;28;20454;-66
2022/07/23 08:57:33;;;;;;;1.67;0.77;;;;;;;;;;4992700;28;20046;-66
2022/07/23 09:00:00;;;;;;;0.68;0.68;;;;;;;;;;4992224;28;20089;-66
2022/07/23 09:02:26;;;;;;;0.93;0.70;;;;;;;;;;4992966;28;20121;-66
2022/07/23 09:04:52;;;;;;;1.77;0.60;;;;;;;;;;4992921;28;20461;-66
2022/07/23 09:07:18;;;;;;;0.70;0.40;;;;;;;;;;4992299;28;20115;-66
2022/07/23 09:09:44;;;;;;;1.23;0.65;;;;;;;;;;4992499;28;20112;-66
2022/07/23 09:12:11;;;;;;;0.35;0.30;;;;;;;;;;4992480;28;20050;-66
2022/07/23 09:14:37;;;;;;;0.70;0.60;;;;;;;;;;4992189;28;20050;-66
2022/07/23 09:17:13;;;;;;;0.47;0.47;;;;;;;;;;4992557;28;20046;-66
2022/07/23 09:19:40;;;;;;;2.08;0.68;;;;;;;;;;4992407;28;20049;-66
2022/07/23 09:22:18;;;;;;;1.17;0.45;;;;;;;;;;4992291;28;20128;-66
2022/07/23 09:25:02;;;;;;;1.17;0.80;;;;;;;;;;4992616;28;20045;-66
2022/07/23 09:27:46;;;;;;;1.05;0.50;;;;;;;;;;4974741;28;20050;-66
2022/07/23 09:30:12;;;;;;;0.50;0.40;;;;;;;;;;4992029;28;20040;-66
2022/07/23 09:32:39;;;;;;;1.38;0.60;;;;;;;;;;4992288;28;20088;-66
2022/07/23 09:35:05;;;;;;;0.65;0.60;;;;;;;;;;4974860;28;20053;-66
2022/07/23 09:37:31;;;;;;;1.73;0.60;;;;;;;;;;4991825;28;20049;-66
2022/07/23 09:40:05;;;;;;;2.15;0.52;;;;;;;;;;4992225;28;20398;-66
2022/07/23 09:42:31;;;;;;;1.35;0.60;;;;;;;;;;4992216;28;20039;-66
2022/07/23 09:44:57;;;;;;;0.63;0.60;;;;;;;;;;4991243;28;20109;-66
2022/07/23 09:47:24;;;;;;;1.30;0.80;;;;;;;;;;4991734;28;20057;-66
2022/07/23 09:50:13;;;;;;;1.25;0.63;;;;;;;;;;4992255;28;20084;-66
2022/07/23 09:52:45;;;;;;;2.72;0.60;;;;;;;;;;4991733;28;20440;-66
2022/07/23 09:55:12;;;;;;;1.15;0.85;;;;;;;;;;4991746;28;20477;-66
2022/07/23 09:57:39;;;;;;;1.77;0.70;;;;;;;;;;4991877;28;20049;-66
2022/07/23 10:00:07;;;;;;;1.55;0.80;;;;;;;;;;4991885;28;20038;-66
2022/07/23 10:02:33;;;;;;;1.98;0.60;;;;;;;;;;4991804;28;20062;-66
2022/07/23 10:05:01;;;;;;;1.42;0.70;;;;;;;;;;4992095;28;20035;-66
2022/07/23 10:07:29;;;;;;;0.60;0.57;;;;;;;;;;4991514;28;20136;-66
2022/07/23 10:09:56;;;;;;;3.72;0.90;;;;;;;;;;4992002;28;20488;-66
2022/07/23 10:14:49;;;;;;;3.17;0.82;;;;;;;;;;4991366;28;20053;-66
2022/07/23 10:17:15;;;;;;;0.73;0.50;;;;;;;;;;4991674;28;20043;-66
2022/07/23 10:19:41;;;;;;;2.00;0.93;;;;;;;;;;4991936;28;20548;-66
2022/07/23 10:22:08;;;;;;;0.63;0.52;;;;;;;;;;4991340;28;20130;-66
2022/07/23 10:24:53;;;;;;;2.20;0.77;;;;;;;;;;4992170;28;20041;-66
2022/07/23 10:27:27;;;;;;;1.85;0.70;;;;;;;;;;4991451;28;20042;-66
2022/07/23 10:30:06;;;;;;;1.70;0.60;;;;;;;;;;4991899;28;20049;-66
2022/07/23 10:32:39;;;;;;;0.70;0.70;;;;;;;;;;4991804;28;20049;-66
2022/07/23 10:35:05;;;;;;;;;;;;;;;;;;4991881;28;20122;-66
2022/07/23 10:37:33;;;;;;;2.40;0.70;;;;;;;;;;4991764;28;20004;-66
2022/07/23 10:40:32;;;;;;;1.10;0.80;;;;;;;;;;4991768;28;20038;-66
2022/07/23 10:43:00;;;;;;;1.83;1.05;;;;;;;;;;4947929;28;20401;-66
2022/07/23 10:45:34;;;;;;;0.98;0.80;;;;;;;;;;4973707;28;20084;-66
2022/07/23 10:48:16;;;;;;;0.93;0.90;;;;;;;;;;4991214;28;20050;-66
2022/07/23 10:50:43;;;;;;;1.58;0.68;;;;;;;;;;4991329;28;20050;-66
2022/07/23 10:53:15;;;;;;;1.48;0.80;;;;;;;;;;4991756;28;20084;-66
2022/07/23 10:55:43;;;;;;;2.03;0.80;;;;;;;;;;4991700;28;20101;-66
2022/07/23 10:58:09;;;;;;;1.95;0.93;;;;;;;;;;4994811;28;20686;-66
2022/07/23 11:00:36;;;;;;;1.58;0.70;;;;;;;;;;4994974;28;20038;-66
2022/07/23 11:03:07;;;;;;;1.23;0.80;;;;;;;;;;4995012;28;20062;-66
2022/07/23 11:05:39;;;;;;;0.80;0.80;;;;;;;;;;4994240;28;20121;-66
2022/07/23 11:08:07;;;;;;;1.80;0.93;;;;;;;;;;4994975;28;20046;-66
2022/07/23 11:10:38;;;;;;;0.82;0.80;;;;;;;;;;4995002;28;20516;-66
2022/07/23 11:13:22;;;;;;;1.92;1.10;;;;;;;;;;4994405;28;20073;-66
2022/07/23 11:16:01;;;;;;;3.10;1.52;;;;;;;;;;4977070;28;20038;-66
2022/07/23 11:18:50;;;;;;;3.80;1.13;;;;;;;;;;4994820;28;20078;-66
2022/07/23 11:21:31;;;;;;;1.80;1.05;;;;;;;;;;4983705;28;20134;-66
2022/07/23 11:23:57;;;;;;;2.53;1.00;;;;;;;;;;4994690;28;20425;-66
2022/07/23 11:26:39;;;;;;;2.15;1.10;;;;;;;;;;4994615;28;20362;-66
2022/07/23 11:29:24;;;;;;;1.45;1.10;;;;;;;;;;4994608;28;20117;-66
2022/07/23 11:31:53;;;;;;;1.27;1.17;;;;;;;;;;4994488;28;20065;-66
2022/07/23 11:34:28;;;;;;;2.97;1.42;;;;;;;;;;4994035;28;20476;-66
2022/07/23 11:36:55;;;;;;;2.20;1.23;;;;;;;;;;4994364;28;20053;-66
2022/07/23 11:39:21;;;;;;;1.20;0.98;;;;;;;;;;4994195;28;20047;-66
2022/07/23 11:41:47;;;;;;;2.35;1.25;;;;;;;;;;4993684;28;20057;-66
2022/07/23 11:44:26;;;;;;;1.52;1.20;;;;;;;;;;4976831;28;20092;-66
2022/07/23 11:47:12;;;;;;;1.98;1.10;;;;;;;;;;4993829;28;20104;-66
2022/07/23 11:49:38;;;;;;;1.90;1.10;;;;;;;;;;4993565;28;20154;-66
2022/07/23 11:52:05;;;;;;;1.33;1.13;;;;;;;;;;4994208;28;20366;-66
2022/07/23 11:54:32;;;;;;;5.38;1.38;;;;;;;;;;4994193;28;20038;-66
2022/07/23 11:56:58;;;;;;;2.03;1.20;;;;;;;;;;4993638;28;20089;-66
2022/07/23 11:59:26;;;;;;;1.33;0.95;;;;;;;;;;4976441;28;20085;-66
2022/07/23 12:01:59;;;;;;;4.10;1.00;;;;;;;;;;4993950;28;20057;-66
2022/07/23 12:04:45;;;;;;;1.45;1.15;;;;;;;;;;4993284;28;20045;-66
2022/07/23 12:07:30;;;;;;;5.15;1.65;;;;;;;;;;4993063;28;20042;-66
2022/07/23 12:09:57;;;;;;;1.30;1.08;;;;;;;;;;4993925;28;20072;-66
2022/07/23 12:12:23;;;;;;;1.92;1.35;;;;;;;;;;4993364;28;20169;-66
2022/07/23 12:14:49;;;;;;;2.55;1.00;;;;;;;;;;4993726;28;20481;-66
2022/07/23 12:17:15;;;;;;;1.92;1.30;;;;;;;;;;4993458;28;20520;-66
2022/07/23 12:19:42;;;;;;;1.90;1.30;;;;;;;;;;4993312;28;20562;-66
2022/07/23 12:22:08;;;;;;;3.75;1.33;;;;;;;;;;4993437;28;20046;-66
2022/07/23 12:24:52;;;;;;;2.42;1.27;;;;;;;;;;4993548;28;20038;-66
2022/07/23 12:27:20;;;;;;;1.73;1.10;;;;;;;;;;4992589;28;20046;-66
2022/07/23 12:29:46;;;;;;;4.63;1.60;;;;;;;;;;4993343;28;20074;-66
2022/07/23 12:32:23;;;;;;;2.85;1.30;;;;;;;;;;4993333;28;20043;-66
2022/07/23 12:34:50;;;;;;;4.57;1.85;;;;;;;;;;4992887;28;20088;-66
2022/07/23 12:37:52;;;;;;;2.70;1.52;;;;;;;;;;4993100;28;20094;-66
2022/07/23 12:40:31;;;;;;;3.10;1.53;;;;;;;;;;4913417;29;20099;-66
2022/07/23 12:43:02;;;;;;;1.83;1.40;;;;;;;;;;4983856;28;20293;-66
2022/07/23 12:45:29;;;;;;;3.65;1.75;;;;;;;;;;4975631;28;20130;-66
2022/07/23 12:48:05;;;;;;;2.85;1.20;;;;;;;;;;4974978;28;20058;-66
2022/07/23 12:50:35;;;;;;;3.20;1.65;;;;;;;;;;4992844;28;20126;-66
2022/07/23 12:53:05;;;;;;;4.13;1.50;;;;;;;;;;4992771;28;20452;-66
2022/07/23 12:55:32;;;;;;;1.67;1.40;;;;;;;;;;4992598;28;20104;-66
2022/07/23 12:58:16;;;;;;;3.50;1.35;;;;;;;;;;4992814;28;20038;-66
2022/07/23 13:00:55;;;;;;;1.58;1.20;;;;;;;;;;4992536;28;20113;-66
2022/07/23 13:03:25;;;;;;;3.30;1.45;;;;;;;;;;4992527;28;20042;-66
2022/07/23 13:05:52;;;;;;;2.72;1.45;;;;;;;;;;4992795;28;20448;-66
2022/07/23 13:08:18;;;;;;;3.03;1.50;;;;;;;;;;4992816;28;20508;-66
2022/07/23 13:10:48;;;;;;;1.92;1.40;;;;;;;;;;4992200;28;20038;-66
2022/07/23 13:13:14;;;;;;;3.60;1.52;;;;;;;;;;4992449;28;20038;-66
2022/07/23 13:15:40;;;;;;;1.70;1.23;;;;;;;;;;4992560;28;20157;-66
2022/07/23 13:18:06;;;;;;;3.10;1.77;;;;;;;;;;4974621;28;20481;-66
2022/07/23 13:20:33;;;;;;;2.05;1.48;;;;;;;;;;4991723;28;20039;-66
2022/07/23 13:23:01;;;;;;;2.67;1.30;;;;;;;;;;4992459;28;20042;-66
2022/07/23 13:25:27;;;;;;;2.88;1.50;;;;;;;;;;4992165;28;20050;-66
2022/07/23 13:27:53;;;;;;;4.95;1.92;;;;;;;;;;4992325;28;20044;-66
2022/07/23 13:30:19;;;;;;;3.50;1.65;;;;;;;;;;4992409;28;20377;-66
2022/07/23 13:32:45;;;;;;;2.92;1.38;;;;;;;;;;4992006;28;20046;-66
2022/07/23 13:35:11;;;;;;;3.25;1.70;;;;;;;;;;4974948;28;20050;-66
2022/07/23 13:37:37;;;;;;;2.75;1.88;;;;;;;;;;4991912;28;20085;-66
2022/07/23 13:40:04;;;;;;;3.47;1.70;;;;;;;;;;4992043;28;20042;-66
2022/07/23 13:42:30;;;;;;;2.80;1.17;;;;;;;;;;4992090;28;20038;-66
2022/07/23 13:44:56;;;;;;;1.33;1.10;;;;;;;;;;4992087;28;20445;-66
2022/07/23 13:47:22;;;;;;;2.63;1.38;;;;;;;;;;4991345;28;20066;-66
2022/07/23 13:49:48;;;;;;;2.78;1.20;;;;;;;;;;4992223;28;20046;-66
2022/07/23 13:52:14;;;;;;;4.03;1.50;;;;;;;;;;4992199;28;20046;-66
2022/07/23 13:54:40;;;;;;;2.38;1.30;;;;;;;;;;4991495;28;20111;-66
2022/07/23 13:57:06;;;;;;;2.00;1.40;;;;;;;;;;4992017;28;20042;-66
2022/07/23 13:59:32;;;;;;;2.05;1.23;;;;;;;;;;4992201;28;20082;-66
2022/07/23 14:01:59;;;;;;;2.85;1.30;;;;;;;;;;4991693;28;20049;-66
2022/07/23 14:04:25;;;;;;;2.10;1.30;;;;;;;;;;4992186;28;20030;-66
2022/07/23 14:06:51;;;;;;;1.52;1.30;;;;;;;;;;4991741;28;20392;-66
2022/07/23 14:09:17;;;;;;;3.53;1.25;;;;;;;;;;4992050;28;20263;-67
2022/07/23 14:11:43;;;;;;;2.55;1.52;;;;;;;;;;4991526;28;20051;-67
2022/07/23 14:14:09;;;;;;;2.42;1.27;;;;;;;;;;4991998;28;20125;-67
2022/07/23 14:16:35;;;;;;;1.80;1.05;;;;;;;;;;4974419;28;20050;-66
2022/07/23 14:19:02;;;;;;;1.63;1.20;;;;;;;;;;4991600;28;20046;-66
2022/07/23 14:21:28;;;;;;;1.45;1.30;;;;;;;;;;4991856;28;20501;-67
2022/07/23 14:23:54;;;;;;;2.05;0.98;;;;;;;;;;4991603;28;20042;-67
2022/07/23 14:26:20;;;;;;;2.95;1.10;;;;;;;;;;4991252;28;20081;-67
2022/07/23 14:28:47;;;;;;;3.03;1.17;;;;;;;;;;4991807;28;20540;-67
2022/07/23 14:31:13;;;;;;;1.52;1.00;;;;;;;;;;4994269;28;20069;-67
2022/07/23 14:33:39;;;;;;;1.80;1.00;;;;;;;;;;4995037;28;20050;-67
2022/07/23 14:36:06;;;;;;;1.52;0.80;;;;;;;;;;4995496;28;20506;-67
2022/07/23 14:38:32;;;;;;;4.32;1.00;;;;;;;;;;4995577;28;20038;-67
2022/07/23 14:40:59;;;;;;;1.00;0.80;;;;;;;;;;4994824;28;20429;-67
2022/07/23 14:43:25;;;;;;;1.48;0.90;;;;;;;;;;4995437;28;20038;-67
2022/07/23 14:45:51;;;;;;;1.70;0.90;;;;;;;;;;4995152;28;20042;-67
2022/07/23 14:48:17;;;;;;;1.40;0.90;;;;;;;;;;4994622;28;20440;-67